createdAt,value
2022-10-13T00:04:41.688Z,0.57
2022-10-13T00:07:09.804Z,0.60
2022-10-13T00:09:37.943Z,0.60
2022-10-13T00:12:06.168Z,0.60
2022-10-13T00:14:34.273Z,0.60
2022-10-13T00:17:02.349Z,0.40
2022-10-13T00:19:31.932Z,0.65
2022-10-13T00:22:00.098Z,0.55
2022-10-13T00:24:28.320Z,0.50
2022-10-13T00:26:56.643Z,0.73
2022-10-13T00:29:24.686Z,0.47
2022-10-13T00:31:52.989Z,0.50
2022-10-13T00:34:39.946Z,0.70
2022-10-13T00:37:26.766Z,0.50
2022-10-13T00:40:14.112Z,0.70
2022-10-13T00:45:29.833Z,0.70
2022-10-13T00:48:01.454Z,0.88
2022-10-13T00:50:36.275Z,0.70
2022-10-13T00:53:06.893Z,0.60
2022-10-13T00:55:39.073Z,0.50
2022-10-13T00:58:11.343Z,0.50
2022-10-13T01:03:26.071Z,0.60
2022-10-13T01:06:31.610Z,0.77
2022-10-13T01:08:59.714Z,0.70
2022-10-13T01:11:35.440Z,0.55
2022-10-13T01:14:11.491Z,0.50
2022-10-13T01:16:51.164Z,0.50
2022-10-13T01:19:37.815Z,0.82
2022-10-13T01:22:18.026Z,0.52
2022-10-13T01:25:10.417Z,0.57
2022-10-13T01:27:47.100Z,0.60
2022-10-13T01:30:37.875Z,0.90
2022-10-13T01:33:35.901Z,0.50
2022-10-13T01:36:31.072Z,0.70
2022-10-13T01:39:10.411Z,0.93
2022-10-13T01:41:41.705Z,0.60
2022-10-13T01:44:37.135Z,0.70
2022-10-13T01:47:26.412Z,0.60
2022-10-13T01:49:55.561Z,0.70
2022-10-13T01:52:28.249Z,0.57
2022-10-13T01:54:56.296Z,0.77
2022-10-13T01:57:33.468Z,0.93
2022-10-13T02:00:06.789Z,0.50
2022-10-13T02:02:59.338Z,1.30
2022-10-13T02:05:49.822Z,0.80
2022-10-13T02:08:31.467Z,0.73
2022-10-13T02:11:10.416Z,0.70
2022-10-13T02:13:43.531Z,0.80
2022-10-13T02:16:13.675Z,0.95
2022-10-13T02:18:42.479Z,0.57
2022-10-13T02:21:31.107Z,0.52
2022-10-13T02:24:21.154Z,0.60
2022-10-13T02:26:49.479Z,0.80
2022-10-13T02:29:39.215Z,0.65
2022-10-13T02:32:07.465Z,0.80
2022-10-13T02:34:35.925Z,1.45
2022-10-13T02:37:25.621Z,0.60
2022-10-13T02:39:53.781Z,0.70
2022-10-13T02:42:22.302Z,0.90
2022-10-13T02:44:50.662Z,0.90
2022-10-13T02:50:05.796Z,0.60
2022-10-13T02:52:34.059Z,0.70
2022-10-13T02:55:20.652Z,0.88
2022-10-13T02:58:11.520Z,1.02
2022-10-13T03:00:39.990Z,1.15
2022-10-13T03:03:08.260Z,0.77
2022-10-13T03:05:36.362Z,0.57
2022-10-13T03:08:23.706Z,0.45
2022-10-13T03:10:51.847Z,0.80
2022-10-13T03:13:20.280Z,1.00
2022-10-13T03:15:48.436Z,0.80
2022-10-13T03:18:16.756Z,1.25
2022-10-13T03:20:45.143Z,0.70
2022-10-13T03:23:32.049Z,1.05
2022-10-13T03:26:00.408Z,0.80
2022-10-13T03:28:28.988Z,0.90
2022-10-13T03:31:02.222Z,0.90
2022-10-13T03:33:30.509Z,0.70
2022-10-13T03:36:01.594Z,0.75
2022-10-13T03:38:31.105Z,0.55
2022-10-13T03:41:04.502Z,0.75
2022-10-13T03:46:19.345Z,0.82
2022-10-13T03:48:48.610Z,0.68
2022-10-13T03:51:19.516Z,0.63
2022-10-13T03:53:51.676Z,0.75
2022-10-13T03:56:25.741Z,0.90
2022-10-13T03:58:56.622Z,1.00
2022-10-13T04:01:27.778Z,0.90
2022-10-13T04:03:57.494Z,0.80
2022-10-13T04:06:26.935Z,0.77
2022-10-13T04:08:56.044Z,1.08
2022-10-13T04:11:24.544Z,0.60
2022-10-13T04:13:53.003Z,1.10
2022-10-13T04:16:24.399Z,1.27
2022-10-13T04:19:19.784Z,0.82
2022-10-13T04:21:47.978Z,0.80
2022-10-13T04:24:17.969Z,1.05
2022-10-13T04:26:46.714Z,1.20
2022-10-13T04:29:14.926Z,0.77
2022-10-13T04:31:45.702Z,1.00
2022-10-13T04:34:13.814Z,0.82
2022-10-13T04:39:27.263Z,0.88
2022-10-13T04:41:56.893Z,1.33
2022-10-13T04:44:24.971Z,1.42
2022-10-13T04:46:52.987Z,1.05
2022-10-13T04:49:21.039Z,1.67
2022-10-13T04:51:49.125Z,1.10
2022-10-13T04:54:17.077Z,0.90
2022-10-13T04:56:46.474Z,1.10
2022-10-13T04:59:14.627Z,0.90
2022-10-13T05:01:42.707Z,1.20
2022-10-13T05:07:05.183Z,1.05
2022-10-13T05:09:30.827Z,1.20
2022-10-13T05:11:58.880Z,1.25
2022-10-13T05:14:26.968Z,1.00
2022-10-13T05:16:55.011Z,1.08
2022-10-13T05:19:23.000Z,1.20
2022-10-13T05:21:52.974Z,1.13
2022-10-13T05:24:31.238Z,1.42
2022-10-13T05:26:59.344Z,0.90
2022-10-13T05:29:27.383Z,1.00
2022-10-13T05:31:55.371Z,1.20
2022-10-13T05:34:23.351Z,1.50
2022-10-13T05:39:55.201Z,1.77
2022-10-13T05:42:23.321Z,1.05
2022-10-13T05:44:51.904Z,1.00
2022-10-13T05:47:19.932Z,0.90
2022-10-13T05:49:47.922Z,1.08
2022-10-13T05:52:16.001Z,1.42
2022-10-13T05:54:47.661Z,1.10
2022-10-13T05:57:23.691Z,1.10
2022-10-13T05:59:58.006Z,1.50
2022-10-13T06:02:35.014Z,1.15
2022-10-13T06:05:04.853Z,1.25
2022-10-13T06:07:33.442Z,1.15
2022-10-13T06:10:02.028Z,1.15
2022-10-13T06:12:30.036Z,1.00
2022-10-13T06:14:58.055Z,1.10
2022-10-13T06:17:26.107Z,1.42
2022-10-13T06:19:54.026Z,0.80
2022-10-13T06:22:22.656Z,1.30
2022-10-13T06:24:50.698Z,1.45
2022-10-13T06:27:37.282Z,1.38
2022-10-13T06:30:06.029Z,1.10
2022-10-13T06:32:34.052Z,1.25
2022-10-13T06:37:48.909Z,1.70
2022-10-13T06:40:17.527Z,1.50
2022-10-13T06:42:50.355Z,1.02
2022-10-13T06:45:19.745Z,1.27
2022-10-13T06:48:06.439Z,1.27
2022-10-13T06:50:35.160Z,0.90
2022-10-13T06:53:04.531Z,1.38
2022-10-13T06:55:32.903Z,1.45
2022-10-13T06:58:00.944Z,1.67
2022-10-13T07:00:28.897Z,1.50
2022-10-13T07:02:56.916Z,1.05
2022-10-13T07:05:24.951Z,1.17
2022-10-13T07:07:54.289Z,1.65
2022-10-13T07:10:22.395Z,1.00
2022-10-13T07:12:50.459Z,1.30
2022-10-13T07:15:18.466Z,1.20
2022-10-13T07:17:46.516Z,1.05
2022-10-13T07:20:14.567Z,1.17
2022-10-13T07:22:43.178Z,1.05
2022-10-13T07:25:12.543Z,1.25
2022-10-13T07:30:27.615Z,1.35
2022-10-13T07:32:55.717Z,1.75
2022-10-13T07:35:30.303Z,0.90
2022-10-13T07:37:59.165Z,2.28
2022-10-13T07:40:27.232Z,1.60
2022-10-13T07:42:57.008Z,1.38
2022-10-13T07:45:25.424Z,1.45
2022-10-13T07:47:53.442Z,1.55
2022-10-13T07:50:21.503Z,1.55
2022-10-13T07:52:49.712Z,1.30
2022-10-13T07:55:17.722Z,1.48
2022-10-13T07:57:45.722Z,2.08
2022-10-13T08:00:14.197Z,1.30
2022-10-13T08:02:42.343Z,1.50
2022-10-13T08:07:58.303Z,1.40
2022-10-13T08:10:28.074Z,1.20
2022-10-13T08:12:56.180Z,1.20
2022-10-13T08:15:24.081Z,1.02
2022-10-13T08:17:52.091Z,1.27
2022-10-13T08:20:21.026Z,1.30
2022-10-13T08:22:49.076Z,1.33
2022-10-13T08:25:17.050Z,1.23
2022-10-13T08:27:51.101Z,1.90
2022-10-13T08:30:20.092Z,1.40
2022-10-13T08:32:48.375Z,1.48
2022-10-13T08:35:16.624Z,1.50
2022-10-13T08:37:44.623Z,2.60
2022-10-13T08:40:17.435Z,2.30
2022-10-13T08:42:46.980Z,2.00
2022-10-13T08:45:41.486Z,1.20
2022-10-13T08:48:33.449Z,2.35
2022-10-13T08:51:04.187Z,1.55
2022-10-13T08:56:31.135Z,1.40
2022-10-13T08:58:59.291Z,1.10
2022-10-13T09:01:33.268Z,1.23
2022-10-13T09:04:30.315Z,1.23
2022-10-13T09:07:10.536Z,1.55
2022-10-13T09:09:39.440Z,1.08
2022-10-13T09:12:07.637Z,2.80
2022-10-13T09:14:37.817Z,1.60
2022-10-13T09:17:24.165Z,1.65
2022-10-13T09:20:07.408Z,1.70
2022-10-13T09:22:39.349Z,1.20
2022-10-13T09:25:07.381Z,1.25
2022-10-13T09:27:50.210Z,1.42
2022-10-13T09:30:33.362Z,2.08
2022-10-13T09:33:13.292Z,1.83
2022-10-13T09:35:56.637Z,1.55
2022-10-13T09:38:26.308Z,1.25
2022-10-13T09:41:04.020Z,1.67
2022-10-13T09:43:47.311Z,1.50
2022-10-13T09:46:26.630Z,1.35
2022-10-13T09:48:57.788Z,1.63
2022-10-13T09:51:34.704Z,1.15
2022-10-13T09:54:40.708Z,1.10
2022-10-13T09:57:31.632Z,1.75
2022-10-13T10:00:03.903Z,1.63
2022-10-13T10:02:57.420Z,1.50
2022-10-13T10:05:47.427Z,1.63
2022-10-13T10:09:01.650Z,1.73
2022-10-13T10:11:33.912Z,1.55
2022-10-13T10:14:22.200Z,2.20
2022-10-13T10:17:16.701Z,1.40
2022-10-13T10:19:54.964Z,2.08
2022-10-13T10:23:12.191Z,2.05
2022-10-13T10:26:40.305Z,1.33
2022-10-13T10:29:08.155Z,1.60
2022-10-13T10:32:11.812Z,1.40
2022-10-13T10:34:54.099Z,1.25
2022-10-13T10:37:29.971Z,1.50
2022-10-13T10:40:25.757Z,1.50
2022-10-13T10:43:13.647Z,1.48
2022-10-13T10:45:41.833Z,1.50
2022-10-13T10:48:35.151Z,1.50
2022-10-13T10:51:10.437Z,1.77
2022-10-13T10:53:58.516Z,1.50
2022-10-13T10:56:34.899Z,1.55
2022-10-13T10:59:27.239Z,1.48
2022-10-13T11:02:07.752Z,1.70
2022-10-13T11:04:47.328Z,1.52
2022-10-13T11:07:24.510Z,1.20
2022-10-13T11:09:52.443Z,1.38
2022-10-13T11:12:20.992Z,1.20
2022-10-13T11:15:12.125Z,1.40
2022-10-13T11:17:41.659Z,1.80
2022-10-13T11:20:21.848Z,1.20
2022-10-13T11:22:58.684Z,1.42
2022-10-13T11:25:40.256Z,1.80
2022-10-13T11:28:23.910Z,1.40
2022-10-13T11:31:33.483Z,1.17
2022-10-13T11:34:04.131Z,1.50
2022-10-13T11:36:37.193Z,1.73
2022-10-13T11:39:27.992Z,1.88
2022-10-13T11:42:12.588Z,1.10
2022-10-13T11:44:57.993Z,1.80
2022-10-13T11:47:55.668Z,1.70
2022-10-13T11:50:34.226Z,1.20
2022-10-13T11:53:17.056Z,1.35
2022-10-13T11:55:56.203Z,1.58
2022-10-13T11:58:25.713Z,1.83
2022-10-13T12:00:55.657Z,1.83
2022-10-13T12:03:30.211Z,1.50
2022-10-13T12:06:02.235Z,1.15
2022-10-13T12:08:32.873Z,1.33
2022-10-13T12:11:03.272Z,1.48
2022-10-13T12:13:33.099Z,1.23
2022-10-13T12:16:06.731Z,1.35
2022-10-13T12:18:38.537Z,1.23
2022-10-13T12:21:20.443Z,1.55
2022-10-13T12:23:52.690Z,1.25
2022-10-13T12:26:23.180Z,1.40
2022-10-13T12:29:01.655Z,1.40
2022-10-13T12:31:59.820Z,1.58
2022-10-13T12:34:35.401Z,1.23
2022-10-13T12:37:18.665Z,1.45
2022-10-13T12:39:47.495Z,1.77
2022-10-13T12:42:16.818Z,1.50
2022-10-13T12:44:45.568Z,1.70
2022-10-13T12:47:36.897Z,1.40
2022-10-13T12:50:29.247Z,2.13
2022-10-13T12:53:09.187Z,2.03
2022-10-13T12:55:53.663Z,2.35
2022-10-13T12:58:31.397Z,1.58
2022-10-13T13:01:14.442Z,1.52
2022-10-13T13:03:44.285Z,1.15
2022-10-13T13:06:15.270Z,1.55
2022-10-13T13:11:33.799Z,1.40
2022-10-13T13:17:57.145Z,1.30
2022-10-13T13:20:35.128Z,1.25
2022-10-13T13:23:03.227Z,1.83
2022-10-13T13:25:31.362Z,1.58
2022-10-13T13:28:04.680Z,1.83
2022-10-13T13:30:32.771Z,1.58
2022-10-13T13:33:00.765Z,1.85
2022-10-13T13:35:28.959Z,1.85
2022-10-13T13:37:56.887Z,2.78
2022-10-13T13:40:26.777Z,1.45
2022-10-13T13:42:55.560Z,2.35
2022-10-13T13:45:26.545Z,1.80
2022-10-13T13:47:58.076Z,1.42
2022-10-13T13:50:34.386Z,1.35
2022-10-13T13:53:02.911Z,1.67
2022-10-13T13:55:31.428Z,1.98
2022-10-13T13:57:59.714Z,1.55
2022-10-13T14:00:27.635Z,1.83
2022-10-13T14:02:57.950Z,1.25
2022-10-13T14:05:26.163Z,2.17
2022-10-13T14:07:55.739Z,1.80
2022-10-13T14:10:25.423Z,1.70
2022-10-13T14:12:53.424Z,1.50
2022-10-13T14:15:23.451Z,1.58
2022-10-13T14:17:54.636Z,1.90
2022-10-13T14:20:23.057Z,1.30
2022-10-13T14:22:50.944Z,1.40
2022-10-13T14:25:19.753Z,2.70
2022-10-13T14:28:06.538Z,1.92
2022-10-13T14:30:34.576Z,1.48
2022-10-13T14:33:05.196Z,1.67
2022-10-13T14:38:19.684Z,1.60
2022-10-13T14:40:48.705Z,1.88
2022-10-13T14:43:16.707Z,1.50
2022-10-13T14:45:44.703Z,1.83
2022-10-13T14:48:15.467Z,1.80
2022-10-13T14:50:43.457Z,1.83
2022-10-13T14:53:15.504Z,2.22
2022-10-13T14:55:44.481Z,2.08
2022-10-13T14:58:12.809Z,1.75
2022-10-13T15:00:59.382Z,1.90
2022-10-13T15:03:28.115Z,1.83
2022-10-13T15:05:56.277Z,1.77
2022-10-13T15:08:24.445Z,2.05
2022-10-13T15:11:05.311Z,1.65
2022-10-13T15:13:33.348Z,1.42
2022-10-13T15:16:01.504Z,1.33
2022-10-13T15:18:48.073Z,1.40
2022-10-13T15:21:16.975Z,1.75
2022-10-13T15:23:45.322Z,1.65
2022-10-13T15:26:15.098Z,1.48
2022-10-13T15:31:31.666Z,1.42
2022-10-13T15:33:59.580Z,1.40
2022-10-13T15:36:27.597Z,1.38
2022-10-13T15:38:55.551Z,1.77
2022-10-13T15:41:24.648Z,2.25
2022-10-13T15:43:52.814Z,2.45
2022-10-13T15:46:24.543Z,1.40
2022-10-13T15:48:56.960Z,1.35
2022-10-13T15:51:27.237Z,1.65
2022-10-13T15:53:55.517Z,1.30
2022-10-13T15:56:23.597Z,1.38
2022-10-13T15:58:51.774Z,1.90
2022-10-13T16:01:19.776Z,1.73
2022-10-13T16:03:47.795Z,1.35
2022-10-13T16:06:15.915Z,1.95
2022-10-13T16:08:44.519Z,2.13
2022-10-13T16:11:14.963Z,1.90
2022-10-13T16:14:01.312Z,1.85
2022-10-13T16:16:30.018Z,1.63
2022-10-13T16:18:58.114Z,1.95
2022-10-13T16:21:26.748Z,1.45
2022-10-13T16:23:54.719Z,1.65
2022-10-13T16:26:23.859Z,1.63
2022-10-13T16:28:55.086Z,1.73
2022-10-13T16:31:24.367Z,1.80
2022-10-13T16:33:52.399Z,2.20
2022-10-13T16:36:20.611Z,1.40
2022-10-13T16:38:54.073Z,1.58
2022-10-13T16:41:22.229Z,1.77
2022-10-13T16:43:50.585Z,1.58
2022-10-13T16:46:20.614Z,1.70
2022-10-13T16:48:48.823Z,1.70
2022-10-13T16:51:22.683Z,1.60
2022-10-13T16:53:58.729Z,1.80
2022-10-13T16:56:31.432Z,1.80
2022-10-13T16:59:05.434Z,1.90
2022-10-13T17:01:34.944Z,1.63
2022-10-13T17:04:04.585Z,1.70
2022-10-13T17:06:32.920Z,1.55
2022-10-13T17:09:03.501Z,1.83
2022-10-13T17:11:33.770Z,1.63
2022-10-13T17:14:05.855Z,2.15
2022-10-13T17:16:34.543Z,2.17
2022-10-13T17:19:03.402Z,1.75
2022-10-13T17:21:34.606Z,2.10
2022-10-13T17:24:02.560Z,1.65
2022-10-13T17:26:30.434Z,2.20
2022-10-13T17:28:58.554Z,1.80
2022-10-13T17:31:26.701Z,2.40
2022-10-13T17:33:55.201Z,1.98
2022-10-13T17:36:25.118Z,1.90
2022-10-13T17:38:55.958Z,2.20
2022-10-13T17:41:24.835Z,1.40
2022-10-13T17:43:52.966Z,1.77
2022-10-13T17:46:39.890Z,1.65
2022-10-13T17:49:11.577Z,2.17
2022-10-13T17:51:44.495Z,1.67
2022-10-13T17:54:16.048Z,1.75
2022-10-13T17:56:45.554Z,1.90
2022-10-13T17:59:17.723Z,1.92
2022-10-13T18:01:46.293Z,1.52
2022-10-13T18:04:17.197Z,1.60
2022-10-13T18:07:03.956Z,2.45
2022-10-13T18:09:31.948Z,1.73
2022-10-13T18:11:59.898Z,1.77
2022-10-13T18:14:28.104Z,2.08
2022-10-13T18:16:56.660Z,2.08
2022-10-13T18:19:24.703Z,2.47
2022-10-13T18:21:53.299Z,2.03
2022-10-13T18:24:21.609Z,2.20
2022-10-13T18:26:49.511Z,3.40
2022-10-13T18:29:17.549Z,2.45
2022-10-13T18:31:45.622Z,2.22
2022-10-13T18:34:16.275Z,2.22
2022-10-13T18:39:32.071Z,2.25
2022-10-13T18:42:00.374Z,2.40
2022-10-13T18:44:34.988Z,2.90
2022-10-13T18:47:03.401Z,2.10
2022-10-13T18:49:31.646Z,2.38
2022-10-13T18:52:01.361Z,2.95
2022-10-13T18:54:30.228Z,2.65
2022-10-13T18:56:58.479Z,2.20
2022-10-13T18:59:26.629Z,2.60
2022-10-13T19:01:54.688Z,3.90
2022-10-13T19:04:22.833Z,2.22
2022-10-13T19:06:51.650Z,2.20
2022-10-13T19:09:21.744Z,2.72
2022-10-13T19:11:50.252Z,2.50
2022-10-13T19:14:18.971Z,2.90
2022-10-13T19:16:47.157Z,2.42
2022-10-13T19:19:15.412Z,3.03
2022-10-13T19:21:43.430Z,3.22
2022-10-13T19:24:11.994Z,2.53
2022-10-13T19:26:40.050Z,2.80
2022-10-13T19:29:13.786Z,2.78
2022-10-13T19:31:43.512Z,2.78
2022-10-13T19:34:12.897Z,2.70
2022-10-13T19:36:44.008Z,3.15
2022-10-13T19:39:21.879Z,2.85
2022-10-13T19:41:51.821Z,2.42
2022-10-13T19:44:20.874Z,2.40
2022-10-13T19:46:49.725Z,2.70
2022-10-13T19:49:21.089Z,2.78
2022-10-13T19:51:50.596Z,2.95
2022-10-13T19:54:20.078Z,2.30
2022-10-13T19:56:49.783Z,2.67
2022-10-13T19:59:18.840Z,2.42
2022-10-13T20:01:47.006Z,2.10
2022-10-13T20:04:18.737Z,3.38
2022-10-13T20:06:50.806Z,2.35
2022-10-13T20:09:20.023Z,2.55
2022-10-13T20:11:50.442Z,2.80
2022-10-13T20:14:19.262Z,2.85
2022-10-13T20:16:47.816Z,2.53
2022-10-13T20:19:19.751Z,2.75
2022-10-13T20:21:51.872Z,2.33
2022-10-13T20:27:07.378Z,2.83
2022-10-13T20:32:22.072Z,2.60
2022-10-13T20:34:50.119Z,2.95
2022-10-13T20:37:18.434Z,2.45
2022-10-13T20:39:47.493Z,2.40
2022-10-13T20:42:15.519Z,2.83
2022-10-13T20:45:01.898Z,2.63
2022-10-13T20:47:29.934Z,2.63
2022-10-13T20:49:57.888Z,2.40
2022-10-13T20:52:25.954Z,2.53
2022-10-13T20:54:53.944Z,2.50
2022-10-13T20:57:22.057Z,2.58
2022-10-13T20:59:51.513Z,2.92
2022-10-13T21:02:19.517Z,2.60
2022-10-13T21:04:48.743Z,2.97
2022-10-13T21:07:16.769Z,2.55
2022-10-13T21:09:44.861Z,2.70
2022-10-13T21:12:12.829Z,3.13
2022-10-13T21:14:40.916Z,2.92
2022-10-13T21:17:08.923Z,2.67
2022-10-13T21:19:37.245Z,3.60
2022-10-13T21:22:23.803Z,2.22
2022-10-13T21:24:53.055Z,3.60
2022-10-13T21:27:21.502Z,2.35
2022-10-13T21:29:49.886Z,2.17
2022-10-13T21:32:17.946Z,2.67
2022-10-13T21:34:48.563Z,3.05
2022-10-13T21:37:19.059Z,2.95
2022-10-13T21:39:49.118Z,2.25
2022-10-13T21:42:17.324Z,2.30
2022-10-13T21:45:04.860Z,2.60
2022-10-13T21:47:34.689Z,2.28
2022-10-13T21:50:04.748Z,2.17
2022-10-13T21:52:35.918Z,2.50
2022-10-13T21:55:04.307Z,2.38
2022-10-13T21:57:32.524Z,2.40
2022-10-13T22:00:00.610Z,3.03
2022-10-13T22:02:28.748Z,2.85
2022-10-13T22:04:56.770Z,2.70
2022-10-13T22:07:24.978Z,3.42
2022-10-13T22:09:53.243Z,2.35
2022-10-13T22:12:21.470Z,1.85
2022-10-13T22:14:49.685Z,2.30
2022-10-13T22:17:21.235Z,2.55
2022-10-13T22:19:49.507Z,2.45
2022-10-13T22:22:36.101Z,2.50
2022-10-13T22:25:04.581Z,3.05
2022-10-13T22:27:33.406Z,2.38
2022-10-13T22:30:01.703Z,2.38
2022-10-13T22:32:29.975Z,2.38
2022-10-13T22:34:58.092Z,2.10
2022-10-13T22:37:26.289Z,2.15
2022-10-13T22:39:54.370Z,1.80
2022-10-13T22:42:22.564Z,2.25
2022-10-13T22:45:09.539Z,1.90
2022-10-13T22:47:37.621Z,2.15
2022-10-13T22:52:52.061Z,1.63
2022-10-13T22:58:24.211Z,1.00
2022-10-13T23:00:56.632Z,0.95
2022-10-13T23:03:25.029Z,0.80
2022-10-13T23:05:54.982Z,1.10
2022-10-13T23:08:23.516Z,1.45
2022-10-13T23:10:51.698Z,1.27
2022-10-13T23:13:19.929Z,1.58
2022-10-13T23:15:49.981Z,1.73
2022-10-13T23:18:18.133Z,1.60
2022-10-13T23:20:46.277Z,1.25
2022-10-13T23:23:15.514Z,1.42
2022-10-13T23:25:43.667Z,1.27
2022-10-13T23:28:11.873Z,1.55
2022-10-13T23:30:39.990Z,1.20
2022-10-13T23:33:08.515Z,2.08
2022-10-13T23:35:36.782Z,0.98
2022-10-13T23:38:04.926Z,1.02
2022-10-13T23:40:36.003Z,1.30
2022-10-13T23:43:04.193Z,1.10
2022-10-13T23:45:33.543Z,1.35
2022-10-13T23:48:01.675Z,1.42
2022-10-13T23:50:48.480Z,1.42
2022-10-13T23:53:35.187Z,1.75
2022-10-13T23:56:05.819Z,0.93
2022-10-13T23:58:36.969Z,1.55
